Time,TemperatureF,DewpointF,PressureIn,WindDirection,WindDirectionDegrees,WindSpeedMPH,WindSpeedGustMPH,Humidity,HourlyPrecipIn,Conditions,Clouds,dailyrainin,SoftwareType,DateUTC
2013-08-24 00:00:00,60.4,52.1,30.10,ESE,108,0.0,5.0,74,0.00,,,0.00,Wunderground v.1.15,2013-08-24 04:00:00,
2013-08-24 00:05:00,60.2,52.2,30.11,ESE,108,0.0,5.0,75,0.00,,,0.00,Wunderground v.1.15,2013-08-24 04:05:00,
2013-08-24 00:10:00,60.0,52.1,30.11,ESE,107,0.0,5.0,75,0.00,,,0.00,Wunderground v.1.15,2013-08-24 04:10:00,
2013-08-24 00:15:00,59.8,51.9,30.11,ESE,107,0.0,5.0,75,0.00,,,0.00,Wunderground v.1.15,2013-08-24 04:15:00,
2013-08-24 00:20:00,59.6,52.0,30.11,ESE,107,0.0,5.0,76,0.00,,,0.00,Wunderground v.1.15,2013-08-24 04:20:00,
2013-08-24 00:30:00,59.4,51.8,30.12,ESE,107,0.0,5.0,76,0.00,,,0.00,Wunderground v.1.15,2013-08-24 04:30:00,
2013-08-24 00:35:00,59.1,51.5,30.12,ESE,108,0.0,5.0,76,0.00,,,0.00,Wunderground v.1.15,2013-08-24 04:35:00,
2013-08-24 00:40:00,59.0,51.8,30.12,ESE,108,0.0,5.0,77,0.00,,,0.00,Wunderground v.1.15,2013-08-24 04:40:00,
2013-08-24 00:45:00,59.0,52.1,30.12,ESE,108,0.0,5.0,78,0.00,,,0.00,Wunderground v.1.15,2013-08-24 04:45:00,
2013-08-24 00:55:00,58.6,51.8,30.12,ESE,107,0.0,5.0,78,0.00,,,0.00,Wunderground v.1.15,2013-08-24 04:55:00,
2013-08-24 01:05:00,58.2,51.4,30.13,ESE,109,0.0,5.0,78,0.00,,,0.00,Wunderground v.1.15,2013-08-24 05:05:00,
2013-08-24 01:15:00,58.0,51.5,30.13,ESE,109,0.0,5.0,79,0.00,,,0.00,Wunderground v.1.15,2013-08-24 05:15:00,
2013-08-24 01:20:00,57.8,51.3,30.14,ESE,109,0.0,5.0,79,0.00,,,0.00,Wunderground v.1.15,2013-08-24 05:20:00,
2013-08-24 01:30:00,57.6,51.5,30.13,ESE,109,0.0,5.0,80,0.00,,,0.00,Wunderground v.1.15,2013-08-24 05:30:00,
2013-08-24 01:40:00,57.3,51.5,30.14,ESE,109,0.0,5.0,81,0.00,,,0.00,Wunderground v.1.15,2013-08-24 05:40:00,
2013-08-24 01:45:00,57.1,51.3,30.14,ESE,109,0.0,5.0,81,0.00,,,0.00,Wunderground v.1.15,2013-08-24 05:45:00,
2013-08-24 01:55:00,56.8,51.7,30.14,ESE,109,0.0,5.0,83,0.00,,,0.00,Wunderground v.1.15,2013-08-24 05:55:00,
2013-08-24 02:05:00,56.4,51.3,30.14,ESE,109,0.0,5.0,83,0.00,,,0.00,Wunderground v.1.15,2013-08-24 06:05:00,
2013-08-24 02:15:00,56.1,51.3,30.14,ESE,109,0.0,5.0,84,0.00,,,0.00,Wunderground v.1.15,2013-08-24 06:15:00,
2013-08-24 02:20:00,56.0,51.6,30.14,ESE,109,0.0,5.0,85,0.00,,,0.00,Wunderground v.1.15,2013-08-24 06:20:00,
2013-08-24 02:30:00,55.8,51.0,30.15,ESE,109,0.0,5.0,84,0.00,,,0.00,Wunderground v.1.15,2013-08-24 06:30:00,
2013-08-24 02:40:00,55.7,50.9,30.15,ESE,109,0.0,5.0,84,0.00,,,0.00,Wunderground v.1.15,2013-08-24 06:40:00,
2013-08-24 02:50:00,55.6,50.8,30.15,ESE,109,0.0,5.0,84,0.00,,,0.00,Wunderground v.1.15,2013-08-24 06:50:00,
2013-08-24 03:01:00,55.5,50.7,30.15,ESE,109,0.0,0.0,84,0.00,,,0.00,Wunderground v.1.15,2013-08-24 07:01:00,
2013-08-24 03:10:00,55.5,50.7,30.15,ESE,109,0.0,0.0,84,0.00,,,0.00,Wunderground v.1.15,2013-08-24 07:10:00,
2013-08-24 03:15:00,55.6,50.8,30.16,ESE,109,0.0,0.0,84,0.00,,,0.00,Wunderground v.1.15,2013-08-24 07:15:00,
2013-08-24 03:25:00,55.7,51.3,30.16,ESE,109,0.0,0.0,85,0.00,,,0.00,Wunderground v.1.15,2013-08-24 07:25:00,
2013-08-24 03:35:00,55.6,51.2,30.16,ESE,109,0.0,0.0,85,0.00,,,0.00,Wunderground v.1.15,2013-08-24 07:35:00,
2013-08-24 03:40:00,55.5,51.1,30.16,ESE,109,0.0,0.0,85,0.00,,,0.00,Wunderground v.1.15,2013-08-24 07:40:00,
2013-08-24 03:50:00,55.3,50.5,30.16,ESE,109,0.0,0.0,84,0.00,,,0.00,Wunderground v.1.15,2013-08-24 07:50:00,
2013-08-24 04:00:00,55.3,50.9,30.17,ESE,109,0.0,0.0,85,0.00,,,0.00,Wunderground v.1.15,2013-08-24 08:00:00,
2013-08-24 04:10:00,55.2,50.8,30.17,ESE,109,0.0,0.0,85,0.00,,,0.00,Wunderground v.1.15,2013-08-24 08:10:00,
2013-08-24 04:20:00,55.1,50.7,30.17,ESE,109,0.0,0.0,85,0.00,,,0.00,Wunderground v.1.15,2013-08-24 08:20:00,
2013-08-24 04:30:00,55.1,51.0,30.18,ESE,109,0.0,0.0,86,0.00,,,0.00,Wunderground v.1.15,2013-08-24 08:30:00,
2013-08-24 04:35:00,55.1,50.7,30.18,ESE,109,0.0,0.0,85,0.00,,,0.00,Wunderground v.1.15,2013-08-24 08:35:00,
2013-08-24 04:45:00,55.0,50.6,30.18,ESE,109,0.0,0.0,85,0.00,,,0.00,Wunderground v.1.15,2013-08-24 08:45:00,
2013-08-24 04:55:00,55.0,50.6,30.19,ESE,109,0.0,0.0,85,0.00,,,0.00,Wunderground v.1.15,2013-08-24 08:55:00,
2013-08-24 05:00:00,54.9,50.5,30.19,ESE,109,0.0,0.0,85,0.00,,,0.00,Wunderground v.1.15,2013-08-24 09:00:00,
2013-08-24 05:10:00,54.7,50.3,30.20,ESE,109,0.0,0.0,85,0.00,,,0.00,Wunderground v.1.15,2013-08-24 09:10:00,
2013-08-24 05:20:00,54.6,50.2,30.20,ESE,109,0.0,0.0,85,0.00,,,0.00,Wunderground v.1.15,2013-08-24 09:20:00,
2013-08-24 05:30:00,54.5,50.4,30.20,ESE,109,0.0,0.0,86,0.00,,,0.00,Wunderground v.1.15,2013-08-24 09:30:00,
2013-08-24 05:35:00,54.4,50.3,30.21,ESE,109,0.0,0.0,86,0.00,,,0.00,Wunderground v.1.15,2013-08-24 09:35:00,
2013-08-24 05:45:00,54.2,50.1,30.21,ESE,109,0.0,0.0,86,0.00,,,0.00,Wunderground v.1.15,2013-08-24 09:45:00,
2013-08-24 05:55:00,54.1,50.0,30.22,ESE,109,0.0,0.0,86,0.00,,,0.00,Wunderground v.1.15,2013-08-24 09:55:00,
2013-08-24 06:00:00,54.1,50.0,30.22,ESE,109,0.0,0.0,86,0.00,,,0.00,Wunderground v.1.15,2013-08-24 10:00:00,
2013-08-24 06:10:00,53.9,50.1,30.22,ESE,109,0.0,0.0,87,0.00,,,0.00,Wunderground v.1.15,2013-08-24 10:10:00,
2013-08-24 06:20:00,53.9,50.1,30.23,ESE,109,0.0,0.0,87,0.00,,,0.00,Wunderground v.1.15,2013-08-24 10:20:00,
2013-08-24 06:30:00,54.1,50.3,30.23,ESE,109,0.0,0.0,87,0.00,,,0.00,Wunderground v.1.15,2013-08-24 10:30:00,
2013-08-24 06:40:00,54.2,50.4,30.24,ESE,109,0.0,0.0,87,0.00,,,0.00,Wunderground v.1.15,2013-08-24 10:40:00,
2013-08-24 06:50:00,54.5,50.4,30.24,ESE,109,0.0,0.0,86,0.00,,,0.00,Wunderground v.1.15,2013-08-24 10:50:00,
2013-08-24 07:00:00,54.9,51.1,30.24,ESE,109,0.0,0.0,87,0.00,,,0.00,Wunderground v.1.15,2013-08-24 11:00:00,
2013-08-24 07:10:00,55.3,51.2,30.25,ESE,109,0.0,0.0,86,0.00,,,0.00,Wunderground v.1.15,2013-08-24 11:10:00,
2013-08-24 07:20:00,55.6,51.2,30.25,ESE,109,0.0,0.0,85,0.00,,,0.00,Wunderground v.1.15,2013-08-24 11:20:00,
2013-08-24 07:30:00,56.2,51.7,30.25,ESE,109,0.0,0.0,85,0.00,,,0.00,Wunderground v.1.15,2013-08-24 11:30:00,
2013-08-24 07:40:00,56.9,51.8,30.25,ESE,109,0.0,0.0,83,0.00,,,0.00,Wunderground v.1.15,2013-08-24 11:40:00,
2013-08-24 07:45:00,57.3,51.9,30.26,ESE,109,0.0,0.0,82,0.00,,,0.00,Wunderground v.1.15,2013-08-24 11:45:00,
2013-08-24 07:55:00,58.3,52.5,30.26,ESE,109,0.0,0.0,81,0.00,,,0.00,Wunderground v.1.15,2013-08-24 11:55:00,
2013-08-24 08:05:00,59.7,52.5,30.26,ESE,109,0.0,0.0,77,0.00,,,0.00,Wunderground v.1.15,2013-08-24 12:05:00,
2013-08-24 08:15:00,60.7,52.7,30.26,ESE,109,0.0,0.0,75,0.00,,,0.00,Wunderground v.1.15,2013-08-24 12:15:00,
2013-08-24 08:25:00,61.2,53.6,30.27,ESE,109,0.0,0.0,76,0.00,,,0.00,Wunderground v.1.15,2013-08-24 12:25:00,
2013-08-24 08:35:00,62.4,53.6,30.27,ESE,109,0.0,0.0,73,0.00,,,0.00,Wunderground v.1.15,2013-08-24 12:35:00,
2013-08-24 08:45:00,63.6,54.8,30.27,ESE,109,0.0,0.0,73,0.00,,,0.00,Wunderground v.1.15,2013-08-24 12:45:00,
2013-08-24 08:55:00,64.5,54.1,30.27,ESE,108,0.0,0.0,69,0.00,,,0.00,Wunderground v.1.15,2013-08-24 12:55:00,
2013-08-24 09:00:00,64.8,53.2,30.27,SW,218,0.0,0.0,66,0.00,,,0.00,Wunderground v.1.15,2013-08-24 13:00:00,
2013-08-24 09:10:00,65.2,54.4,30.28,SE,126,0.0,0.0,68,0.00,,,0.00,Wunderground v.1.15,2013-08-24 13:10:00,
2013-08-24 09:20:00,65.0,52.5,30.28,East,100,1.0,1.0,64,0.00,,,0.00,Wunderground v.1.15,2013-08-24 13:20:00,
2013-08-24 09:25:00,65.6,54.3,30.28,ENE,74,1.0,4.0,67,0.00,,,0.00,Wunderground v.1.15,2013-08-24 13:25:00,
2013-08-24 09:35:00,66.3,55.0,30.28,SW,228,1.0,1.0,67,0.00,,,0.00,Wunderground v.1.15,2013-08-24 13:35:00,
2013-08-24 09:45:00,67.1,55.4,30.28,ESE,105,0.0,0.0,66,0.00,,,0.00,Wunderground v.1.15,2013-08-24 13:45:00,
2013-08-24 09:55:00,67.4,55.2,30.28,ESE,103,0.0,1.0,65,0.00,,,0.00,Wunderground v.1.15,2013-08-24 13:55:00,
2013-08-24 10:05:00,68.2,54.2,30.28,ESE,105,0.0,0.0,61,0.00,,,0.00,Wunderground v.1.15,2013-08-24 14:05:00,
2013-08-24 10:15:00,67.9,52.6,30.28,East,98,1.0,1.0,58,0.00,,,0.00,Wunderground v.1.15,2013-08-24 14:15:00,
2013-08-24 10:25:00,68.1,52.8,30.27,East,94,1.0,4.0,58,0.00,,,0.00,Wunderground v.1.15,2013-08-24 14:25:00,
2013-08-24 10:35:00,68.3,54.8,30.27,ESE,113,1.0,1.0,62,0.00,,,0.00,Wunderground v.1.15,2013-08-24 14:35:00,
2013-08-24 10:40:00,68.8,53.9,30.27,ESE,113,1.0,1.0,59,0.00,,,0.00,Wunderground v.1.15,2013-08-24 14:40:00,
2013-08-24 10:50:00,68.9,52.6,30.27,ESE,112,0.0,0.0,56,0.00,,,0.00,Wunderground v.1.15,2013-08-24 14:50:00,
2013-08-24 11:00:00,68.8,51.5,30.27,ESE,114,1.0,1.0,54,0.00,,,0.00,Wunderground v.1.15,2013-08-24 15:00:00,
2013-08-24 11:10:00,69.5,54.1,30.27,ESE,113,0.0,4.0,58,0.00,,,0.00,Wunderground v.1.15,2013-08-24 15:10:00,
2013-08-24 11:20:00,70.0,52.6,30.27,ESE,110,0.0,0.0,54,0.00,,,0.00,Wunderground v.1.15,2013-08-24 15:20:00,
2013-08-24 11:30:00,70.3,54.3,30.27,SE,144,1.0,1.0,57,0.00,,,0.00,Wunderground v.1.15,2013-08-24 15:30:00,
2013-08-24 11:40:00,70.3,52.4,30.27,SE,134,0.0,1.0,53,0.00,,,0.00,Wunderground v.1.15,2013-08-24 15:40:00,
2013-08-24 11:50:00,70.2,52.3,30.27,South,188,1.0,1.0,53,0.00,,,0.00,Wunderground v.1.15,2013-08-24 15:50:00,
2013-08-24 11:55:00,70.3,51.3,30.27,East,94,1.0,1.0,51,0.00,,,0.00,Wunderground v.1.15,2013-08-24 15:55:00,
2013-08-24 12:03:00,70.6,53.6,30.27,East,85,1.0,1.0,55,0.00,,,0.00,Wunderground v.1.15,2013-08-24 16:03:00,
2013-08-24 12:10:00,71.3,54.3,30.27,East,85,0.0,1.0,55,0.00,,,0.00,Wunderground v.1.15,2013-08-24 16:10:00,
2013-08-24 12:20:00,71.8,55.3,30.27,SSE,157,0.0,0.0,56,0.00,,,0.00,Wunderground v.1.15,2013-08-24 16:20:00,
2013-08-24 12:30:00,71.7,52.6,30.27,SE,124,1.0,1.0,51,0.00,,,0.00,Wunderground v.1.15,2013-08-24 16:30:00,
2013-08-24 12:35:00,72.0,52.9,30.27,SE,146,0.0,0.0,51,0.00,,,0.00,Wunderground v.1.15,2013-08-24 16:35:00,
2013-08-24 12:45:00,72.2,55.1,30.26,SE,144,1.0,1.0,55,0.00,,,0.00,Wunderground v.1.15,2013-08-24 16:45:00,
2013-08-24 12:55:00,72.2,54.1,30.26,South,172,0.0,1.0,53,0.00,,,0.00,Wunderground v.1.15,2013-08-24 16:55:00,
2013-08-24 13:00:00,72.4,55.8,30.26,South,172,0.0,0.0,56,0.00,,,0.00,Wunderground v.1.15,2013-08-24 17:00:00,
2013-08-24 13:06:00,72.4,54.8,30.26,SE,140,0.0,1.0,54,0.00,,,0.00,Wunderground v.1.15,2013-08-24 17:06:00,
2013-08-24 13:15:00,72.8,54.1,30.26,South,182,0.0,2.0,52,0.00,,,0.00,Wunderground v.1.15,2013-08-24 17:15:00,
2013-08-24 13:25:00,73.0,52.1,30.26,East,84,1.0,1.0,48,0.00,,,0.00,Wunderground v.1.15,2013-08-24 17:25:00,
2013-08-24 13:35:00,72.7,54.1,30.26,ENE,65,0.0,2.0,52,0.00,,,0.00,Wunderground v.1.15,2013-08-24 17:35:00,
2013-08-24 13:40:00,72.8,56.7,30.26,SSE,147,0.0,2.0,57,0.00,,,0.00,Wunderground v.1.15,2013-08-24 17:40:00,
2013-08-24 13:50:00,73.0,54.9,30.26,SE,146,0.0,0.0,53,0.00,,,0.00,Wunderground v.1.15,2013-08-24 17:50:00,
2013-08-24 13:55:00,73.2,54.5,30.26,East,94,0.0,0.0,52,0.00,,,0.00,Wunderground v.1.15,2013-08-24 17:55:00,
2013-08-24 14:05:00,73.4,55.2,30.26,East,94,0.0,0.0,53,0.00,,,0.00,Wunderground v.1.15,2013-08-24 18:05:00,
2013-08-24 14:15:00,73.8,56.6,30.25,East,94,0.0,1.0,55,0.00,,,0.00,Wunderground v.1.15,2013-08-24 18:15:00,
2013-08-24 14:25:00,73.8,53.4,30.25,ESE,114,0.0,0.0,49,0.00,,,0.00,Wunderground v.1.15,2013-08-24 18:25:00,
2013-08-24 14:30:00,74.4,54.5,30.25,SSW,201,0.0,1.0,50,0.00,,,0.00,Wunderground v.1.15,2013-08-24 18:30:00,
2013-08-24 14:40:00,74.8,56.5,30.25,SSE,164,0.0,0.0,53,0.00,,,0.00,Wunderground v.1.15,2013-08-24 18:40:00,
2013-08-24 14:50:00,75.3,57.0,30.25,SSE,164,0.0,0.0,53,0.00,,,0.00,Wunderground v.1.15,2013-08-24 18:50:00,
2013-08-24 14:55:00,75.0,54.5,30.25,SSE,165,0.0,0.0,49,0.00,,,0.00,Wunderground v.1.15,2013-08-24 18:55:00,
2013-08-24 15:05:00,75.2,54.7,30.25,SE,138,0.0,0.0,49,0.00,,,0.00,Wunderground v.1.15,2013-08-24 19:05:00,
2013-08-24 15:15:00,75.2,55.8,30.25,ESE,105,0.0,1.0,51,0.00,,,0.00,Wunderground v.1.15,2013-08-24 19:15:00,
2013-08-24 15:25:00,76.0,56.0,30.24,ESE,105,0.0,0.0,50,0.00,,,0.00,Wunderground v.1.15,2013-08-24 19:25:00,
2013-08-24 15:35:00,76.2,58.3,30.25,SSE,153,0.0,0.0,54,0.00,,,0.00,Wunderground v.1.15,2013-08-24 19:35:00,
2013-08-24 15:45:00,75.6,55.1,30.25,SSE,155,0.0,0.0,49,0.00,,,0.00,Wunderground v.1.15,2013-08-24 19:45:00,
2013-08-24 15:55:00,75.7,54.6,30.25,SSE,155,0.0,0.0,48,0.00,,,0.00,Wunderground v.1.15,2013-08-24 19:55:00,
2013-08-24 16:05:00,75.6,56.7,30.25,SSE,155,0.0,0.0,52,0.00,,,0.00,Wunderground v.1.15,2013-08-24 20:05:00,
2013-08-24 16:15:00,74.8,55.5,30.25,SSE,155,0.0,0.0,51,0.00,,,0.00,Wunderground v.1.15,2013-08-24 20:15:00,
2013-08-24 16:25:00,73.5,55.8,30.25,SSE,155,0.0,0.0,54,0.00,,,0.00,Wunderground v.1.15,2013-08-24 20:25:00,
2013-08-24 16:35:00,72.6,56.5,30.24,SSE,150,0.0,0.0,57,0.00,,,0.00,Wunderground v.1.15,2013-08-24 20:35:00,
2013-08-24 16:40:00,72.2,55.1,30.24,SSE,150,0.0,0.0,55,0.00,,,0.00,Wunderground v.1.15,2013-08-24 20:40:00,
2013-08-24 16:50:00,72.0,55.9,30.24,SSE,149,0.0,0.0,57,0.00,,,0.00,Wunderground v.1.15,2013-08-24 20:50:00,
2013-08-24 17:00:00,71.3,56.2,30.24,SSE,149,0.0,0.0,59,0.00,,,0.00,Wunderground v.1.15,2013-08-24 21:00:00,
2013-08-24 17:10:00,71.0,55.0,30.24,SSE,150,0.0,0.0,57,0.00,,,0.00,Wunderground v.1.15,2013-08-24 21:10:00,
2013-08-24 17:20:00,70.5,56.4,30.24,SSE,150,0.0,0.0,61,0.00,,,0.00,Wunderground v.1.15,2013-08-24 21:20:00,
2013-08-24 17:30:00,69.9,56.7,30.24,SSE,149,0.0,0.0,63,0.00,,,0.00,Wunderground v.1.15,2013-08-24 21:30:00,
2013-08-24 17:35:00,69.7,57.0,30.24,SSE,150,0.0,0.0,64,0.00,,,0.00,Wunderground v.1.15,2013-08-24 21:35:00,
2013-08-24 17:45:00,69.5,58.1,30.24,SSE,150,0.0,0.0,67,0.00,,,0.00,Wunderground v.1.15,2013-08-24 21:45:00,
2013-08-24 17:50:00,69.3,57.5,30.24,SSE,149,0.0,0.0,66,0.00,,,0.00,Wunderground v.1.15,2013-08-24 21:50:00,
2013-08-24 17:55:00,69.0,56.7,30.24,SSE,150,0.0,0.0,65,0.00,,,0.00,Wunderground v.1.15,2013-08-24 21:55:00,
2013-08-24 18:05:00,68.4,55.7,30.24,SSE,150,0.0,0.0,64,0.00,,,0.00,Wunderground v.1.15,2013-08-24 22:05:00,
2013-08-24 18:11:00,68.1,56.3,30.24,SSE,149,0.0,0.0,66,0.00,,,0.00,Wunderground v.1.15,2013-08-24 22:11:00,
2013-08-24 18:20:00,67.6,57.5,30.24,SSE,149,0.0,0.0,70,0.00,,,0.00,Wunderground v.1.15,2013-08-24 22:20:00,
2013-08-24 18:30:00,67.1,56.2,30.24,SSE,150,0.0,0.0,68,0.00,,,0.00,Wunderground v.1.15,2013-08-24 22:30:00,
2013-08-24 18:40:00,66.7,57.4,30.24,SSE,149,0.0,0.0,72,0.00,,,0.00,Wunderground v.1.15,2013-08-24 22:40:00,
2013-08-24 18:45:00,66.5,57.6,30.24,SSE,150,0.0,0.0,73,0.00,,,0.00,Wunderground v.1.15,2013-08-24 22:45:00,
2013-08-24 18:55:00,65.9,57.4,30.24,SSE,149,0.0,0.0,74,0.00,,,0.00,Wunderground v.1.15,2013-08-24 22:55:00,
2013-08-24 19:05:00,65.2,55.9,30.24,SSE,150,0.0,0.0,72,0.00,,,0.00,Wunderground v.1.15,2013-08-24 23:05:00,
2013-08-24 19:15:00,64.7,55.8,30.24,SSE,149,0.0,0.0,73,0.00,,,0.00,Wunderground v.1.15,2013-08-24 23:15:00,
2013-08-24 19:25:00,64.1,56.4,30.24,SSE,150,0.0,0.0,76,0.00,,,0.00,Wunderground v.1.15,2013-08-24 23:25:00,
2013-08-24 19:30:00,63.9,56.5,30.24,SSE,150,0.0,0.0,77,0.00,,,0.00,Wunderground v.1.15,2013-08-24 23:30:00,
2013-08-24 19:40:00,63.2,55.5,30.25,SSE,150,0.0,0.0,76,0.00,,,0.00,Wunderground v.1.15,2013-08-24 23:40:00,
2013-08-24 19:45:00,62.7,55.0,30.25,SSE,150,0.0,0.0,76,0.00,,,0.00,Wunderground v.1.15,2013-08-24 23:45:00,
2013-08-24 19:55:00,62.1,55.2,30.25,SSE,150,0.0,0.0,78,0.00,,,0.00,Wunderground v.1.15,2013-08-24 23:55:00,
2013-08-24 20:05:00,61.6,55.4,30.26,SSE,150,0.0,0.0,80,0.00,,,0.00,Wunderground v.1.15,2013-08-25 00:05:00,
2013-08-24 20:15:00,61.2,54.6,30.26,SSE,150,0.0,0.0,79,0.00,,,0.00,Wunderground v.1.15,2013-08-25 00:15:00,
2013-08-24 20:25:00,60.9,54.7,30.26,SSE,150,0.0,0.0,80,0.00,,,0.00,Wunderground v.1.15,2013-08-25 00:25:00,
2013-08-24 20:30:00,60.8,54.2,30.26,SSE,149,0.0,0.0,79,0.00,,,0.00,Wunderground v.1.15,2013-08-25 00:30:00,
2013-08-24 20:40:00,60.7,54.1,30.27,SSE,150,0.0,0.0,79,0.00,,,0.00,Wunderground v.1.15,2013-08-25 00:40:00,
2013-08-24 20:50:00,60.5,53.6,30.27,SSE,149,0.0,0.0,78,0.00,,,0.00,Wunderground v.1.15,2013-08-25 00:50:00,
2013-08-24 20:55:00,60.4,54.2,30.27,SSE,150,0.0,0.0,80,0.00,,,0.00,Wunderground v.1.15,2013-08-25 00:55:00,
2013-08-24 21:05:00,60.3,54.1,30.27,SSE,149,0.0,0.0,80,0.00,,,0.00,Wunderground v.1.15,2013-08-25 01:05:00,
2013-08-24 21:15:00,60.1,53.9,30.27,SSE,150,0.0,0.0,80,0.00,,,0.00,Wunderground v.1.15,2013-08-25 01:15:00,
2013-08-24 21:20:00,60.0,53.1,30.27,SSE,150,0.0,0.0,78,0.00,,,0.00,Wunderground v.1.15,2013-08-25 01:20:00,
2013-08-24 21:30:00,60.0,52.4,30.28,SSE,150,0.0,0.0,76,0.00,,,0.00,Wunderground v.1.15,2013-08-25 01:30:00,
2013-08-24 21:40:00,60.0,51.7,30.28,SSE,150,0.0,0.0,74,0.00,,,0.00,Wunderground v.1.15,2013-08-25 01:40:00,
2013-08-24 21:50:00,59.9,53.0,30.28,SSE,150,0.0,0.0,78,0.00,,,0.00,Wunderground v.1.15,2013-08-25 01:50:00,
2013-08-24 22:00:00,59.8,52.9,30.28,SSE,150,0.0,0.0,78,0.00,,,0.00,Wunderground v.1.15,2013-08-25 02:00:00,
2013-08-24 22:10:00,59.7,52.8,30.28,SSE,150,0.0,0.0,78,0.00,,,0.00,Wunderground v.1.15,2013-08-25 02:10:00,
2013-08-24 22:20:00,59.6,53.4,30.28,SSE,150,0.0,0.0,80,0.00,,,0.00,Wunderground v.1.15,2013-08-25 02:20:00,
2013-08-24 22:30:00,59.4,52.9,30.28,SSE,150,0.0,0.0,79,0.00,,,0.00,Wunderground v.1.15,2013-08-25 02:30:00,
2013-08-24 22:40:00,59.2,53.4,30.28,SSE,149,0.0,0.0,81,0.00,,,0.00,Wunderground v.1.15,2013-08-25 02:40:00,
2013-08-24 22:50:00,58.6,53.8,30.28,SSE,150,0.0,0.0,84,0.00,,,0.00,Wunderground v.1.15,2013-08-25 02:50:00,
2013-08-24 23:00:00,57.1,53.0,30.28,SSE,150,0.0,0.0,86,0.00,,,0.00,Wunderground v.1.15,2013-08-25 03:00:00,
2013-08-24 23:05:00,56.5,52.7,30.28,SSE,150,0.0,0.0,87,0.00,,,0.00,Wunderground v.1.15,2013-08-25 03:05:00,
2013-08-24 23:15:00,56.0,52.8,30.28,SSE,150,0.0,0.0,89,0.00,,,0.00,Wunderground v.1.15,2013-08-25 03:15:00,
2013-08-24 23:25:00,55.5,52.6,30.29,SSE,149,0.0,0.0,90,0.00,,,0.00,Wunderground v.1.15,2013-08-25 03:25:00,
2013-08-24 23:35:00,55.0,52.1,30.29,SSE,149,0.0,0.0,90,0.00,,,0.00,Wunderground v.1.15,2013-08-25 03:35:00,
2013-08-24 23:45:00,54.8,52.2,30.29,SSE,149,0.0,0.0,91,0.00,,,0.00,Wunderground v.1.15,2013-08-25 03:45:00,
2013-08-24 23:55:00,54.9,52.3,30.29,SSE,150,0.0,0.0,91,0.00,,,0.00,Wunderground v.1.15,2013-08-25 03:55:00,